CA60 weather

Deer Creek Ranch Airport
Vina, California, United States

Public forecast

Using degrees Fahrenheit for public forecast. Weather courtesy of forecast.io.

Closest aviation weather report (METAR) to Deer Creek Ranch Airport

Closest report is Chico Municipal Airport, 11.3 nm (20.9 km) SE. Retrieved 2019/10/24 00:47 UTC (58 minutes ago):

KCIC 240047Z VRB05KT 80SM FEW200 29/M07 A2997

Closest aviation forecast (TAF) to Deer Creek Ranch Airport

Closest forecast is Red Bluff Municipal Airport, 16.8 nm (31.1 km) NW. Retrieved 2019-10-24 00:22 UTC (1 hour ago):

TAF KRBL 232320Z 2400/2424 35017G24KT P6SM SKC FM240200 35014G21KT P6SM SKC FM242200 35014KT P6SM SKC